createdAt,value
2019-01-10T00:01:17.359Z,113.17
2019-01-10T00:03:47.663Z,113.97
2019-01-10T00:06:18.466Z,114.27
2019-01-10T00:08:49.746Z,113.20
2019-01-10T00:11:20.029Z,108.47
2019-01-10T00:13:51.357Z,112.23
2019-01-10T00:16:22.432Z,113.70
2019-01-10T00:18:53.535Z,112.47
2019-01-10T00:21:23.783Z,98.13
2019-01-10T00:23:54.244Z,108.33
2019-01-10T00:26:24.312Z,100.33
2019-01-10T00:28:54.513Z,102.37
2019-01-10T00:31:24.792Z,103.07
2019-01-10T00:33:55.293Z,102.87
2019-01-10T00:36:25.226Z,99.43
2019-01-10T00:38:55.386Z,96.67
2019-01-10T00:41:26.097Z,94.50
2019-01-10T00:43:56.078Z,98.47
2019-01-10T00:46:26.442Z,96.20
2019-01-10T00:48:56.508Z,97.03
2019-01-10T00:51:27.023Z,98.00
2019-01-10T00:53:57.133Z,96.03
2019-01-10T00:56:27.131Z,111.85
2019-01-10T00:58:58.753Z,96.90
2019-01-10T01:01:28.884Z,97.40
2019-01-10T01:03:59.099Z,98.07
2019-01-10T01:06:30.444Z,98.50
2019-01-10T01:09:00.602Z,93.17
2019-01-10T01:11:31.715Z,91.37
2019-01-10T01:14:01.769Z,91.50
2019-01-10T01:16:31.819Z,98.17
2019-01-10T01:19:03.165Z,93.07
2019-01-10T01:21:33.487Z,90.87
2019-01-10T01:24:03.572Z,99.57
2019-01-10T01:26:33.589Z,99.20
2019-01-10T01:29:03.793Z,96.97
2019-01-10T01:31:34.912Z,102.73
2019-01-10T01:34:05.517Z,100.97
2019-01-10T01:36:35.729Z,103.93
2019-01-10T01:39:08.097Z,108.77
2019-01-10T01:41:38.223Z,113.53
2019-01-10T01:44:10.056Z,108.67
2019-01-10T01:46:40.252Z,110.00
2019-01-10T01:49:10.745Z,133.67
2019-01-10T01:51:40.919Z,103.50
2019-01-10T01:54:10.927Z,106.67
2019-01-10T01:56:41.031Z,110.07
2019-01-10T01:59:11.262Z,109.23
2019-01-10T02:01:41.202Z,107.67
2019-01-10T02:04:11.382Z,106.53
2019-01-10T02:06:41.599Z,106.00
2019-01-10T02:09:11.805Z,111.77
2019-01-10T02:11:41.927Z,101.23
2019-01-10T02:14:12.510Z,104.20
2019-01-10T02:16:42.493Z,107.47
2019-01-10T02:19:12.653Z,100.23
2019-01-10T02:21:42.703Z,106.07
2019-01-10T02:24:12.902Z,103.03
2019-01-10T02:26:43.121Z,104.40
2019-01-10T02:29:13.254Z,104.23
2019-01-10T02:31:43.315Z,104.00
2019-01-10T02:34:13.325Z,100.13
2019-01-10T02:36:43.231Z,95.87
2019-01-10T02:39:13.469Z,97.97
2019-01-10T02:41:44.585Z,99.77
2019-01-10T02:44:14.933Z,100.97
2019-01-10T02:46:45.057Z,97.97
2019-01-10T02:49:15.426Z,98.00
2019-01-10T02:51:45.721Z,94.27
2019-01-10T02:54:18.065Z,98.43
2019-01-10T02:56:50.573Z,98.17
2019-01-10T02:59:20.802Z,98.20
2019-01-10T03:01:50.744Z,97.07
2019-01-10T03:04:20.753Z,95.40
2019-01-10T03:06:50.715Z,100.50
2019-01-10T03:09:23.132Z,100.80
2019-01-10T03:11:52.434Z,130.20
2019-01-10T03:14:22.377Z,130.63
2019-01-10T03:16:52.664Z,121.60
2019-01-10T03:19:22.725Z,105.40
2019-01-10T03:21:52.668Z,105.23
2019-01-10T03:24:30.617Z,107.30
2019-01-10T03:27:00.725Z,106.57
2019-01-10T03:29:30.702Z,103.20
2019-01-10T03:32:02.483Z,108.93
2019-01-10T03:34:32.650Z,104.73
2019-01-10T03:37:02.701Z,106.00
2019-01-10T03:39:32.829Z,104.93
2019-01-10T03:42:03.497Z,107.80
2019-01-10T03:44:34.321Z,169.37
2019-01-10T03:47:04.885Z,128.67
2019-01-10T03:49:34.842Z,134.13
2019-01-10T03:52:04.946Z,129.13
2019-01-10T03:54:34.933Z,108.47
2019-01-10T03:57:05.085Z,113.80
2019-01-10T03:59:34.998Z,103.27
2019-01-10T04:02:05.242Z,104.87
2019-01-10T04:04:35.287Z,110.97
2019-01-10T04:07:05.517Z,106.40
2019-01-10T04:09:35.710Z,147.33
2019-01-10T04:12:05.839Z,113.33
2019-01-10T04:14:35.802Z,109.07
2019-01-10T04:17:05.910Z,102.93
2019-01-10T04:19:36.001Z,104.43
2019-01-10T04:22:05.949Z,102.40
2019-01-10T04:24:35.878Z,112.67
2019-01-10T04:27:06.013Z,103.03
2019-01-10T04:29:36.092Z,99.93
2019-01-10T04:32:07.885Z,101.43
2019-01-10T04:34:38.059Z,100.53
2019-01-10T04:37:09.485Z,102.17
2019-01-10T04:39:40.148Z,101.13
2019-01-10T04:42:11.731Z,107.30
2019-01-10T04:44:42.907Z,106.50
2019-01-10T04:47:12.980Z,107.40
2019-01-10T04:49:42.986Z,105.87
2019-01-10T04:52:14.061Z,112.23
2019-01-10T04:54:44.056Z,106.20
2019-01-10T04:57:15.030Z,101.10
2019-01-10T04:59:45.181Z,108.33
2019-01-10T05:02:18.471Z,109.27
2019-01-10T05:04:46.661Z,103.93
2019-01-10T05:07:16.675Z,103.17
2019-01-10T05:09:46.755Z,93.47
2019-01-10T05:12:16.777Z,102.13
2019-01-10T05:14:46.814Z,102.97
2019-01-10T05:17:16.742Z,96.63
2019-01-10T05:19:46.733Z,82.40
2019-01-10T05:22:16.758Z,86.37
2019-01-10T05:24:46.701Z,79.60
2019-01-10T05:27:16.754Z,80.00
2019-01-10T05:29:46.657Z,79.87
2019-01-10T05:32:16.653Z,76.63
2019-01-10T05:34:46.697Z,73.83
2019-01-10T05:37:16.740Z,76.70
2019-01-10T05:39:47.742Z,79.60
2019-01-10T05:42:18.564Z,75.67
2019-01-10T05:44:48.581Z,86.63
2019-01-10T05:47:18.685Z,71.90
2019-01-10T05:49:48.798Z,79.60
2019-01-10T05:52:18.778Z,75.27
2019-01-10T05:54:48.860Z,70.13
2019-01-10T05:57:19.846Z,65.67
2019-01-10T05:59:49.822Z,69.60
2019-01-10T06:02:19.745Z,67.47
2019-01-10T06:04:49.646Z,66.80
2019-01-10T06:07:19.589Z,60.50
2019-01-10T06:09:49.499Z,58.60
2019-01-10T06:12:19.493Z,60.30
2019-01-10T06:14:49.610Z,58.83
2019-01-10T06:17:20.201Z,59.47
2019-01-10T06:19:52.753Z,59.97
2019-01-10T06:22:22.733Z,54.67
2019-01-10T06:24:52.732Z,59.73
2019-01-10T06:27:22.891Z,56.70
2019-01-10T06:29:52.970Z,57.73
2019-01-10T06:32:23.069Z,57.67
2019-01-10T06:34:53.249Z,59.20
2019-01-10T06:37:23.220Z,56.73
2019-01-10T06:39:53.354Z,53.87
2019-01-10T06:42:24.373Z,53.63
2019-01-10T06:44:54.486Z,53.70
2019-01-10T06:47:25.785Z,53.60
2019-01-10T06:49:56.049Z,58.73
2019-01-10T06:52:26.253Z,49.70
2019-01-10T06:54:56.889Z,56.17
2019-01-10T06:57:27.091Z,52.00
2019-01-10T06:59:57.244Z,48.53
2019-01-10T07:02:27.444Z,50.27
2019-01-10T07:04:57.605Z,49.73
2019-01-10T07:07:27.857Z,50.77
2019-01-10T07:09:58.054Z,50.70
2019-01-10T07:12:28.158Z,49.43
2019-01-10T07:15:00.296Z,52.30
2019-01-10T07:17:30.798Z,52.63
2019-01-10T07:20:01.126Z,50.97
2019-01-10T07:22:31.175Z,50.10
2019-01-10T07:25:01.318Z,52.63
2019-01-10T07:27:31.436Z,52.13
2019-01-10T07:30:01.554Z,53.47
2019-01-10T07:32:33.079Z,50.30
2019-01-10T07:35:03.276Z,50.23
2019-01-10T07:37:33.700Z,52.73
2019-01-10T07:40:07.337Z,47.63
2019-01-10T07:42:39.635Z,49.87
2019-01-10T07:45:13.658Z,49.73
2019-01-10T07:47:49.319Z,51.30
2019-01-10T07:50:23.812Z,53.30
2019-01-10T07:52:56.461Z,46.23
2019-01-10T07:55:31.437Z,49.73
2019-01-10T07:58:01.587Z,48.90
2019-01-10T08:00:33.005Z,49.13
2019-01-10T08:03:08.783Z,50.83
2019-01-10T08:05:40.391Z,52.60
2019-01-10T08:08:14.362Z,50.63
2019-01-10T08:10:45.693Z,53.13
2019-01-10T08:13:19.579Z,60.93
2019-01-10T08:15:50.407Z,51.33
2019-01-10T08:18:21.560Z,52.83
2019-01-10T08:20:58.815Z,52.87
2019-01-10T08:23:28.938Z,49.73
2019-01-10T08:25:59.561Z,55.13
2019-01-10T08:28:29.692Z,52.73
2019-01-10T08:30:59.695Z,57.93
2019-01-10T08:33:29.897Z,54.40
2019-01-10T08:36:03.697Z,56.23
2019-01-10T08:38:34.470Z,56.67
2019-01-10T08:41:05.027Z,51.17
2019-01-10T08:43:35.194Z,57.83
2019-01-10T08:46:06.567Z,56.93
2019-01-10T08:48:36.963Z,57.30
2019-01-10T08:51:07.211Z,55.83
2019-01-10T08:53:37.346Z,57.83
2019-01-10T08:56:07.459Z,53.63
2019-01-10T08:58:40.768Z,54.83
2019-01-10T09:01:10.986Z,53.87
2019-01-10T09:03:41.844Z,53.10
2019-01-10T09:06:13.630Z,54.13
2019-01-10T09:08:43.971Z,51.80
2019-01-10T09:11:14.248Z,52.63
2019-01-10T09:13:44.819Z,53.50
2019-01-10T09:16:17.207Z,51.77
2019-01-10T09:18:48.607Z,50.37
2019-01-10T09:21:18.826Z,50.17
2019-01-10T09:23:48.883Z,46.67
2019-01-10T09:26:18.933Z,51.53
2019-01-10T09:28:49.010Z,50.87
2019-01-10T09:31:18.970Z,49.10
2019-01-10T09:33:49.194Z,48.43
2019-01-10T09:36:19.443Z,52.00
2019-01-10T09:38:49.516Z,49.10
2019-01-10T09:41:19.744Z,44.47
2019-01-10T09:43:49.800Z,47.70
2019-01-10T09:46:20.126Z,45.50
2019-01-10T09:48:50.291Z,37.00
2019-01-10T09:51:21.698Z,45.93
2019-01-10T09:53:51.971Z,45.73
2019-01-10T09:56:22.295Z,49.27
2019-01-10T09:58:52.436Z,44.77
2019-01-10T10:01:22.779Z,46.33
2019-01-10T10:03:52.889Z,47.07
2019-01-10T10:06:23.305Z,45.60
2019-01-10T10:08:54.745Z,46.53
2019-01-10T10:11:33.847Z,47.70
2019-01-10T10:13:58.378Z,52.77
2019-01-10T10:16:28.526Z,50.13
2019-01-10T10:18:58.506Z,49.50
2019-01-10T10:21:28.592Z,50.83
2019-01-10T10:23:58.619Z,61.80
2019-01-10T10:26:30.349Z,49.43
2019-01-10T10:29:03.925Z,52.00
2019-01-10T10:31:34.177Z,52.03
2019-01-10T10:34:04.597Z,51.47
2019-01-10T10:36:34.826Z,55.50
2019-01-10T10:39:07.388Z,53.00
2019-01-10T10:41:40.492Z,52.53
2019-01-10T10:44:12.710Z,53.80
2019-01-10T10:46:44.197Z,54.83
2019-01-10T10:49:15.632Z,57.27
2019-01-10T10:51:46.080Z,57.63
2019-01-10T10:54:16.188Z,60.60
2019-01-10T10:56:46.446Z,57.37
2019-01-10T10:59:17.052Z,55.10
2019-01-10T11:01:46.994Z,56.83
2019-01-10T11:04:17.080Z,55.83
2019-01-10T11:06:47.296Z,58.37
2019-01-10T11:09:17.578Z,58.17
2019-01-10T11:11:47.890Z,58.57
2019-01-10T11:14:19.102Z,56.33
2019-01-10T11:16:49.235Z,57.43
2019-01-10T11:19:38.580Z,61.33
2019-01-10T11:22:08.976Z,54.37
2019-01-10T11:24:41.711Z,55.57
2019-01-10T11:27:11.795Z,57.53
2019-01-10T11:29:42.047Z,52.90
2019-01-10T11:32:13.401Z,54.13
2019-01-10T11:34:43.804Z,55.97
2019-01-10T11:37:13.971Z,54.80
2019-01-10T11:39:44.115Z,55.67
2019-01-10T11:42:14.097Z,51.90
2019-01-10T11:44:44.305Z,42.03
2019-01-10T11:47:14.393Z,47.93
2019-01-10T11:49:46.069Z,46.97
2019-01-10T11:52:16.018Z,41.93
2019-01-10T11:54:46.315Z,47.67
2019-01-10T11:57:16.231Z,47.03
2019-01-10T11:59:46.325Z,45.67
2019-01-10T12:02:17.182Z,44.00
2019-01-10T12:04:47.223Z,41.00
2019-01-10T12:07:17.303Z,41.93
2019-01-10T12:09:47.435Z,45.30
2019-01-10T12:12:17.646Z,47.47
2019-01-10T12:14:47.663Z,46.23
2019-01-10T12:17:18.839Z,48.37
2019-01-10T12:19:48.813Z,46.83
2019-01-10T12:22:18.769Z,47.60
2019-01-10T12:24:48.931Z,48.17
2019-01-10T12:27:19.015Z,49.00
2019-01-10T12:29:49.060Z,46.77
2019-01-10T12:32:19.162Z,47.20
2019-01-10T12:34:49.409Z,48.20
2019-01-10T12:37:19.674Z,47.27
2019-01-10T12:39:49.762Z,52.87
2019-01-10T12:42:19.790Z,49.47
2019-01-10T12:44:49.931Z,62.10
2019-01-10T12:47:20.023Z,56.77
2019-01-10T12:49:50.394Z,48.43
2019-01-10T12:52:20.478Z,48.47
2019-01-10T12:54:50.513Z,47.47
2019-01-10T12:57:20.915Z,44.43
2019-01-10T12:59:53.564Z,45.00
2019-01-10T13:02:25.226Z,43.07
2019-01-10T13:04:55.379Z,43.03
2019-01-10T13:07:25.579Z,42.97
2019-01-10T13:09:57.950Z,45.07
2019-01-10T13:12:28.161Z,44.67
2019-01-10T13:14:58.524Z,46.70
2019-01-10T13:17:28.947Z,44.83
2019-01-10T13:19:59.235Z,45.63
2019-01-10T13:22:29.790Z,47.30
2019-01-10T13:24:59.795Z,45.87
2019-01-10T13:27:29.994Z,47.53
2019-01-10T13:30:00.097Z,45.20
2019-01-10T13:32:30.431Z,47.03
2019-01-10T13:35:00.427Z,48.03
2019-01-10T13:37:30.607Z,44.43
2019-01-10T13:40:01.005Z,42.67
2019-01-10T13:42:31.382Z,43.37
2019-01-10T13:45:01.609Z,44.10
2019-01-10T13:47:33.122Z,46.80
2019-01-10T13:50:03.666Z,44.00
2019-01-10T13:52:34.125Z,44.83
2019-01-10T13:55:06.368Z,49.10
2019-01-10T13:57:37.627Z,47.63
2019-01-10T14:00:12.059Z,47.73
2019-01-10T14:02:42.527Z,46.90
2019-01-10T14:05:12.801Z,46.87
2019-01-10T14:07:42.994Z,46.57
2019-01-10T14:10:15.624Z,46.20
2019-01-10T14:12:46.183Z,46.80
2019-01-10T14:15:19.419Z,47.77
2019-01-10T14:17:49.527Z,45.83
2019-01-10T14:20:19.693Z,49.30
2019-01-10T14:22:50.373Z,50.03
2019-01-10T14:25:22.270Z,50.93
2019-01-10T14:27:59.330Z,48.33
2019-01-10T14:30:28.239Z,48.47
2019-01-10T14:32:58.413Z,49.97
2019-01-10T14:35:28.887Z,50.60
2019-01-10T14:37:59.139Z,49.03
2019-01-10T14:40:29.179Z,50.13
2019-01-10T14:42:59.133Z,49.67
2019-01-10T14:45:29.354Z,52.53
2019-01-10T14:48:01.870Z,48.43
2019-01-10T14:50:31.265Z,57.30
2019-01-10T14:53:02.034Z,49.23
2019-01-10T14:55:33.357Z,50.00
2019-01-10T14:58:03.699Z,51.20
2019-01-10T15:00:33.952Z,51.67
2019-01-10T15:03:04.264Z,52.50
2019-01-10T15:05:34.993Z,52.13
2019-01-10T15:08:06.510Z,52.83
2019-01-10T15:10:36.798Z,54.57
2019-01-10T15:13:07.036Z,57.60
2019-01-10T15:15:37.764Z,52.43
2019-01-10T15:18:09.348Z,53.43
2019-01-10T15:20:39.377Z,54.83
2019-01-10T15:23:09.379Z,55.43
2019-01-10T15:25:43.060Z,56.30
2019-01-10T15:28:13.103Z,56.33
2019-01-10T15:30:44.060Z,57.50
2019-01-10T15:33:14.139Z,65.43
2019-01-10T15:35:44.299Z,58.57
2019-01-10T15:38:15.067Z,60.03
2019-01-10T15:40:45.340Z,56.33
2019-01-10T15:43:15.869Z,58.90
2019-01-10T15:45:46.308Z,63.03
2019-01-10T15:48:16.542Z,64.27
2019-01-10T15:50:46.638Z,61.53
2019-01-10T15:53:17.309Z,60.27
2019-01-10T15:55:48.162Z,64.73
2019-01-10T15:58:18.207Z,64.70
2019-01-10T16:00:48.388Z,64.50
2019-01-10T16:03:19.078Z,60.40
2019-01-10T16:05:49.635Z,56.57
2019-01-10T16:08:21.238Z,62.03
2019-01-10T16:10:52.575Z,59.73
2019-01-10T16:13:25.874Z,62.30
2019-01-10T16:15:56.336Z,62.03
2019-01-10T16:18:27.439Z,66.57
2019-01-10T16:20:58.117Z,63.13
2019-01-10T16:23:29.794Z,61.23
2019-01-10T16:26:00.347Z,63.57
2019-01-10T16:28:31.159Z,58.90
2019-01-10T16:31:02.478Z,62.67
2019-01-10T16:33:34.515Z,60.40
2019-01-10T16:36:05.168Z,58.70
2019-01-10T16:38:37.360Z,60.10
2019-01-10T16:41:11.238Z,75.90
2019-01-10T16:43:41.925Z,60.40
2019-01-10T16:46:12.765Z,63.70
2019-01-10T16:48:44.211Z,66.93
2019-01-10T16:51:14.875Z,65.37
2019-01-10T16:53:45.686Z,65.90
2019-01-10T16:56:16.519Z,59.53
2019-01-10T16:58:48.795Z,55.83
2019-01-10T17:01:19.358Z,51.43
2019-01-10T17:03:50.615Z,51.23
2019-01-10T17:06:21.294Z,42.87
2019-01-10T17:08:51.834Z,46.73
2019-01-10T17:11:22.383Z,46.43
2019-01-10T17:13:53.505Z,42.93
2019-01-10T17:16:24.070Z,45.70
2019-01-10T17:18:57.228Z,44.00
2019-01-10T17:21:27.911Z,45.63
2019-01-10T17:23:58.337Z,46.63
2019-01-10T17:26:29.332Z,47.10
2019-01-10T17:29:01.302Z,55.37
2019-01-10T17:31:31.692Z,46.80
2019-01-10T17:34:02.310Z,46.07
2019-01-10T17:36:32.962Z,43.30
2019-01-10T17:39:04.472Z,45.13
2019-01-10T17:41:36.653Z,44.47
2019-01-10T17:44:07.630Z,46.20
2019-01-10T17:46:38.481Z,43.17
2019-01-10T17:49:14.710Z,41.03
2019-01-10T17:51:46.748Z,25.87
2019-01-10T17:54:17.670Z,36.43
2019-01-10T17:56:49.957Z,37.17
2019-01-10T17:59:22.076Z,38.20
2019-01-10T18:01:54.488Z,40.37
2019-01-10T18:04:26.400Z,40.57
2019-01-10T18:06:58.126Z,42.07
2019-01-10T18:09:30.852Z,42.67
2019-01-10T18:12:01.656Z,43.13
2019-01-10T18:14:33.238Z,36.83
2019-01-10T18:17:03.958Z,47.20
2019-01-10T18:19:34.864Z,45.30
2019-01-10T18:22:09.104Z,41.13
2019-01-10T18:24:43.892Z,45.70
2019-01-10T18:27:16.751Z,44.33
2019-01-10T18:29:47.675Z,43.67
2019-01-10T18:32:20.343Z,42.83
2019-01-10T18:34:51.767Z,43.77
2019-01-10T18:37:36.197Z,45.93
2019-01-10T18:40:11.378Z,43.87
2019-01-10T18:42:42.389Z,44.03
2019-01-10T18:45:27.591Z,41.57
2019-01-10T18:47:58.444Z,44.40
2019-01-10T18:50:29.786Z,45.30
2019-01-10T18:53:05.032Z,46.50
2019-01-10T18:55:41.110Z,45.53
2019-01-10T18:58:14.638Z,46.80
2019-01-10T19:00:45.518Z,49.00
2019-01-10T19:03:17.991Z,50.53
2019-01-10T19:05:49.505Z,49.10
2019-01-10T19:08:21.471Z,49.20
2019-01-10T19:10:54.097Z,51.63
2019-01-10T19:13:26.737Z,51.57
2019-01-10T19:15:58.038Z,51.63
2019-01-10T19:18:29.239Z,51.47
2019-01-10T19:21:00.394Z,49.47
2019-01-10T19:23:33.678Z,50.57
2019-01-10T19:26:04.876Z,54.70
2019-01-10T19:28:37.050Z,52.40
2019-01-10T19:31:12.477Z,45.67
2019-01-10T19:33:42.931Z,50.37
2019-01-10T19:36:16.678Z,47.23
2019-01-10T19:38:47.558Z,45.13
2019-01-10T19:41:18.199Z,51.30
2019-01-10T19:43:49.118Z,50.83
2019-01-10T19:46:20.084Z,47.57
2019-01-10T19:48:52.751Z,49.30
2019-01-10T19:51:23.474Z,54.43
2019-01-10T19:53:56.127Z,49.03
2019-01-10T19:56:27.478Z,48.53
2019-01-10T19:58:59.078Z,49.60
2019-01-10T20:01:30.038Z,49.40
2019-01-10T20:04:00.988Z,52.93
2019-01-10T20:06:38.880Z,53.57
2019-01-10T20:09:14.980Z,50.73
2019-01-10T20:11:46.521Z,51.60
2019-01-10T20:14:17.492Z,52.93
2019-01-10T20:16:48.119Z,49.63
2019-01-10T20:19:19.229Z,47.00
2019-01-10T20:21:50.210Z,50.67
2019-01-10T20:24:22.856Z,48.10
2019-01-10T20:26:54.191Z,47.57
2019-01-10T20:29:25.838Z,39.63
2019-01-10T20:31:56.637Z,51.67
2019-01-10T20:34:35.037Z,50.80
2019-01-10T20:37:16.559Z,51.03
2019-01-10T20:39:47.482Z,48.77
2019-01-10T20:42:17.982Z,48.40
2019-01-10T20:44:50.191Z,48.30
2019-01-10T20:47:25.181Z,48.50
2019-01-10T20:49:57.079Z,51.63
2019-01-10T20:52:28.570Z,48.87
2019-01-10T20:55:05.998Z,50.63
2019-01-10T20:57:37.688Z,48.70
2019-01-10T21:00:14.353Z,53.67
2019-01-10T21:02:47.751Z,51.13
2019-01-10T21:05:18.902Z,50.60
2019-01-10T21:07:51.144Z,49.10
2019-01-10T21:10:24.125Z,52.43
2019-01-10T21:12:58.246Z,51.20
2019-01-10T21:15:32.543Z,47.53
2019-01-10T21:18:03.986Z,48.83
2019-01-10T21:20:35.569Z,47.40
2019-01-10T21:23:06.117Z,46.97
2019-01-10T21:25:37.623Z,45.63
2019-01-10T21:28:08.942Z,39.27
2019-01-10T21:30:39.550Z,47.97
2019-01-10T21:33:11.360Z,47.50
2019-01-10T21:35:43.611Z,47.57
2019-01-10T21:38:15.078Z,47.93
2019-01-10T21:40:45.749Z,54.90
2019-01-10T21:43:16.607Z,51.13
2019-01-10T21:45:47.430Z,49.57
2019-01-10T21:48:19.434Z,49.83
2019-01-10T21:50:50.064Z,52.10
2019-01-10T21:53:20.774Z,53.67
2019-01-10T21:55:53.270Z,53.70
2019-01-10T21:58:24.702Z,52.53
2019-01-10T22:00:55.158Z,54.33
2019-01-10T22:03:25.646Z,53.90
2019-01-10T22:05:56.518Z,53.67
2019-01-10T22:08:26.684Z,55.13
2019-01-10T22:10:57.331Z,50.13
2019-01-10T22:13:28.120Z,52.40
2019-01-10T22:15:59.529Z,51.90
2019-01-10T22:18:31.020Z,50.70
2019-01-10T22:21:03.083Z,51.60
2019-01-10T22:23:35.320Z,53.03
2019-01-10T22:26:06.699Z,53.63
2019-01-10T22:28:38.286Z,53.47
2019-01-10T22:31:08.638Z,50.30
2019-01-10T22:33:39.358Z,51.23
2019-01-10T22:36:09.790Z,53.17
2019-01-10T22:38:41.668Z,53.57
2019-01-10T22:41:11.798Z,51.80
2019-01-10T22:43:42.717Z,53.30
2019-01-10T22:46:13.997Z,53.60
2019-01-10T22:48:48.158Z,53.10
2019-01-10T22:51:18.409Z,52.37
2019-01-10T22:53:48.382Z,53.97
2019-01-10T22:56:18.378Z,53.10
2019-01-10T22:58:50.517Z,49.33
2019-01-10T23:01:25.097Z,50.07
2019-01-10T23:03:55.575Z,55.20
2019-01-10T23:06:25.798Z,53.70
2019-01-10T23:08:57.530Z,54.90
2019-01-10T23:11:28.072Z,53.27
2019-01-10T23:13:58.373Z,56.03
2019-01-10T23:16:30.699Z,56.33
2019-01-10T23:19:02.845Z,56.37
2019-01-10T23:21:33.438Z,50.40
2019-01-10T23:24:04.719Z,49.10
2019-01-10T23:26:36.354Z,52.23
2019-01-10T23:29:06.541Z,53.00
2019-01-10T23:31:39.573Z,54.17
2019-01-10T23:34:10.956Z,52.83
2019-01-10T23:36:41.714Z,53.20
2019-01-10T23:39:14.506Z,56.67
2019-01-10T23:41:45.981Z,53.20
2019-01-10T23:44:18.113Z,54.00
2019-01-10T23:46:50.755Z,54.97
2019-01-10T23:49:23.248Z,56.23
2019-01-10T23:51:53.733Z,54.07
2019-01-10T23:54:25.180Z,55.17
2019-01-10T23:56:55.776Z,53.90
2019-01-10T23:59:25.785Z,53.40
